createdAt,value
2022-10-20T00:00:05.678Z,11.20
2022-10-20T00:02:07.357Z,11.20
2022-10-20T00:04:09.001Z,11.30
2022-10-20T00:06:12.041Z,11.30
2022-10-20T00:08:13.691Z,11.30
2022-10-20T00:10:15.364Z,11.30
2022-10-20T00:12:17.092Z,11.30
2022-10-20T00:14:18.699Z,11.30
2022-10-20T00:16:20.912Z,11.30
2022-10-20T00:18:23.629Z,11.20
2022-10-20T00:20:25.334Z,11.20
2022-10-20T00:22:27.076Z,11.20
2022-10-20T00:24:28.919Z,11.20
2022-10-20T00:29:32.341Z,11.10
2022-10-20T00:31:33.988Z,11.00
2022-10-20T00:33:36.107Z,11.00
2022-10-20T00:35:38.553Z,10.90
2022-10-20T00:37:40.180Z,10.90
2022-10-20T00:39:41.773Z,11.00
2022-10-20T00:41:44.495Z,11.10
2022-10-20T00:43:56.275Z,11.10
2022-10-20T00:45:58.020Z,11.20
2022-10-20T00:48:01.050Z,11.20
2022-10-20T00:50:07.347Z,11.10
2022-10-20T00:52:09.606Z,11.00
2022-10-20T00:54:13.607Z,11.10
2022-10-20T00:56:15.511Z,11.10
2022-10-20T00:58:17.629Z,11.10
2022-10-20T01:00:19.471Z,11.10
2022-10-20T01:02:21.089Z,11.10
2022-10-20T01:04:23.354Z,11.10
2022-10-20T01:06:25.035Z,11.00
2022-10-20T01:08:26.913Z,10.90
2022-10-20T01:10:30.927Z,10.90
2022-10-20T01:12:35.642Z,10.80
2022-10-20T01:14:53.767Z,10.80
2022-10-20T01:17:02.312Z,10.90
2022-10-20T01:19:13.081Z,10.80
2022-10-20T01:21:14.694Z,10.90
2022-10-20T01:23:35.039Z,10.90
2022-10-20T01:25:55.536Z,10.90
2022-10-20T01:28:05.992Z,10.80
2022-10-20T01:30:07.643Z,10.90
2022-10-20T01:32:20.388Z,10.90
2022-10-20T01:34:30.772Z,10.90
2022-10-20T01:36:36.056Z,11.00
2022-10-20T01:38:42.655Z,11.00
2022-10-20T01:40:59.054Z,11.00
2022-10-20T01:43:03.273Z,11.00
2022-10-20T01:45:05.866Z,11.00
2022-10-20T01:47:08.586Z,10.90
2022-10-20T01:49:11.448Z,10.90
2022-10-20T01:51:13.095Z,10.90
2022-10-20T01:53:15.079Z,10.90
2022-10-20T01:55:18.171Z,10.90
2022-10-20T01:57:19.778Z,10.90
2022-10-20T01:59:26.764Z,10.90
2022-10-20T02:01:31.449Z,11.00
2022-10-20T02:03:42.312Z,11.00
2022-10-20T02:05:44.067Z,10.90
2022-10-20T02:07:45.845Z,10.90
2022-10-20T02:11:59.279Z,10.90
2022-10-20T02:14:01.930Z,10.80
2022-10-20T02:16:07.581Z,10.80
2022-10-20T02:18:11.168Z,10.80
2022-10-20T02:20:13.618Z,10.70
2022-10-20T02:22:16.642Z,10.80
2022-10-20T02:24:18.933Z,10.90
2022-10-20T02:26:22.119Z,10.90
2022-10-20T02:28:23.947Z,10.90
2022-10-20T02:30:25.622Z,10.80
2022-10-20T02:32:27.940Z,10.80
2022-10-20T02:34:29.709Z,10.80
2022-10-20T02:36:31.524Z,10.80
2022-10-20T02:38:33.226Z,10.80
2022-10-20T02:40:35.966Z,10.70
2022-10-20T02:42:38.709Z,10.70
2022-10-20T02:44:40.580Z,10.80
2022-10-20T02:46:42.309Z,10.80
2022-10-20T02:48:43.936Z,10.70
2022-10-20T02:50:45.592Z,10.60
2022-10-20T02:52:47.399Z,10.70
2022-10-20T02:54:49.079Z,10.70
2022-10-20T02:56:50.744Z,10.70
2022-10-20T02:58:52.587Z,10.70
2022-10-20T03:00:54.309Z,10.70
2022-10-20T03:02:56.387Z,10.70
2022-10-20T03:04:59.103Z,10.80
2022-10-20T03:07:00.800Z,10.90
2022-10-20T03:09:02.647Z,10.80
2022-10-20T03:11:04.510Z,10.80
2022-10-20T03:13:06.175Z,10.80
2022-10-20T03:15:08.110Z,10.80
2022-10-20T03:17:09.938Z,10.80
2022-10-20T03:19:12.067Z,10.70
2022-10-20T03:21:13.823Z,10.80
2022-10-20T03:23:17.782Z,10.80
2022-10-20T03:25:21.967Z,10.70
2022-10-20T03:27:23.783Z,10.70
2022-10-20T03:29:25.581Z,10.70
2022-10-20T03:31:27.577Z,10.70
2022-10-20T03:33:29.323Z,10.70
2022-10-20T03:35:31.105Z,10.80
2022-10-20T03:37:32.789Z,10.80
2022-10-20T03:39:35.517Z,10.90
2022-10-20T03:41:38.398Z,10.80
2022-10-20T03:43:40.307Z,10.80
2022-10-20T03:45:43.579Z,10.70
2022-10-20T03:47:45.709Z,10.60
2022-10-20T03:49:47.355Z,10.50
2022-10-20T03:51:49.005Z,10.60
2022-10-20T03:53:50.707Z,10.70
2022-10-20T03:55:52.448Z,10.60
2022-10-20T03:57:54.389Z,10.80
2022-10-20T04:00:03.574Z,10.80
2022-10-20T04:02:05.397Z,10.90
2022-10-20T04:04:07.024Z,10.90
2022-10-20T04:06:08.695Z,10.90
2022-10-20T04:08:11.502Z,10.80
2022-10-20T04:10:13.931Z,10.70
2022-10-20T04:12:15.631Z,10.70
2022-10-20T04:14:17.437Z,10.80
2022-10-20T04:16:19.154Z,10.80
2022-10-20T04:18:21.040Z,10.70
2022-10-20T04:20:22.804Z,10.70
2022-10-20T04:22:24.500Z,10.80
2022-10-20T04:24:27.237Z,10.80
2022-10-20T04:26:28.923Z,10.80
2022-10-20T04:28:30.559Z,10.80
2022-10-20T04:30:32.246Z,10.80
2022-10-20T04:32:33.961Z,10.80
2022-10-20T04:34:36.547Z,10.70
2022-10-20T04:36:38.340Z,10.80
2022-10-20T04:38:39.962Z,10.70
2022-10-20T04:40:41.666Z,10.70
2022-10-20T04:42:43.306Z,10.70
2022-10-20T04:44:45.069Z,10.80
2022-10-20T04:46:46.753Z,10.80
2022-10-20T04:48:48.429Z,10.80
2022-10-20T04:50:59.680Z,10.80
2022-10-20T04:53:02.414Z,10.90
2022-10-20T04:55:04.137Z,10.90
2022-10-20T04:57:06.414Z,10.80
2022-10-20T04:59:12.614Z,10.80
2022-10-20T05:01:15.469Z,10.80
2022-10-20T05:03:19.063Z,10.90
2022-10-20T05:05:22.011Z,10.90
2022-10-20T05:07:23.796Z,10.90
2022-10-20T05:09:25.678Z,10.80
2022-10-20T05:11:28.081Z,10.80
2022-10-20T05:13:29.923Z,10.80
2022-10-20T05:15:32.843Z,10.90
2022-10-20T05:17:37.137Z,10.80
2022-10-20T05:19:38.845Z,10.80
2022-10-20T05:21:50.825Z,10.90
2022-10-20T05:23:56.950Z,10.90
2022-10-20T05:26:02.448Z,10.90
2022-10-20T05:28:05.058Z,10.90
2022-10-20T05:30:07.141Z,10.80
2022-10-20T05:32:10.704Z,10.90
2022-10-20T05:34:12.434Z,10.90
2022-10-20T05:36:19.342Z,10.90
2022-10-20T05:38:23.354Z,10.90
2022-10-20T05:40:25.108Z,10.90
2022-10-20T05:42:26.844Z,10.90
2022-10-20T05:44:28.740Z,10.80
2022-10-20T05:46:32.378Z,10.80
2022-10-20T05:48:35.895Z,10.70
2022-10-20T05:50:40.064Z,10.80
2022-10-20T05:52:41.774Z,10.80
2022-10-20T05:54:43.404Z,10.70
2022-10-20T05:56:45.078Z,10.80
2022-10-20T05:58:47.712Z,10.80
2022-10-20T06:00:52.868Z,10.80
2022-10-20T06:02:54.489Z,10.80
2022-10-20T06:04:56.099Z,10.80
2022-10-20T06:06:58.109Z,10.80
2022-10-20T06:09:00.280Z,10.80
2022-10-20T06:11:03.634Z,10.90
2022-10-20T06:13:05.246Z,10.90
2022-10-20T06:15:07.186Z,10.90
2022-10-20T06:17:09.194Z,11.00
2022-10-20T06:19:10.857Z,11.00
2022-10-20T06:21:16.513Z,11.00
2022-10-20T06:23:18.115Z,11.00
2022-10-20T06:25:19.756Z,11.10
2022-10-20T06:27:22.494Z,11.10
2022-10-20T06:29:24.168Z,11.10
2022-10-20T06:31:30.012Z,11.10
2022-10-20T06:33:31.565Z,11.10
2022-10-20T06:35:33.177Z,11.20
2022-10-20T06:37:34.813Z,11.20
2022-10-20T06:39:36.962Z,11.20
2022-10-20T06:41:38.585Z,11.20
2022-10-20T06:43:40.564Z,11.20
2022-10-20T06:45:43.273Z,11.30
2022-10-20T06:47:45.223Z,11.30
2022-10-20T06:49:49.852Z,11.30
2022-10-20T06:51:51.674Z,11.30
2022-10-20T06:53:53.368Z,11.40
2022-10-20T06:55:59.289Z,11.50
2022-10-20T06:58:01.042Z,11.40
2022-10-20T07:00:03.943Z,11.40
2022-10-20T07:02:05.764Z,11.40
2022-10-20T07:04:13.278Z,11.50
2022-10-20T07:06:19.400Z,11.50
2022-10-20T07:08:21.158Z,11.60
2022-10-20T07:10:23.297Z,11.60
2022-10-20T07:12:24.952Z,11.70
2022-10-20T07:14:26.579Z,11.70
2022-10-20T07:16:29.960Z,11.70
2022-10-20T07:18:31.749Z,11.80
2022-10-20T07:20:33.765Z,11.80
2022-10-20T07:22:37.241Z,11.90
2022-10-20T07:24:39.187Z,11.90
2022-10-20T07:26:41.487Z,12.00
2022-10-20T07:28:44.822Z,12.10
2022-10-20T07:30:46.422Z,12.10
2022-10-20T07:32:48.307Z,12.30
2022-10-20T07:34:49.939Z,12.30
2022-10-20T07:36:51.809Z,12.30
2022-10-20T07:38:54.568Z,12.40
2022-10-20T07:41:01.626Z,12.50
2022-10-20T07:43:03.767Z,12.50
2022-10-20T07:45:05.738Z,12.60
2022-10-20T07:47:07.355Z,12.80
2022-10-20T07:49:43.074Z,12.90
2022-10-20T07:51:33.023Z,13.00
2022-10-20T07:53:34.754Z,13.10
2022-10-20T07:55:39.041Z,13.20
2022-10-20T07:57:41.121Z,13.30
2022-10-20T07:59:42.847Z,13.30
2022-10-20T08:01:44.707Z,13.40
2022-10-20T08:03:46.611Z,13.50
2022-10-20T08:05:49.290Z,13.70
2022-10-20T08:07:50.995Z,13.80
2022-10-20T08:09:52.745Z,13.80
2022-10-20T08:11:56.030Z,13.90
2022-10-20T08:13:58.156Z,14.00
2022-10-20T08:16:05.762Z,14.00
2022-10-20T08:18:07.958Z,14.10
2022-10-20T08:20:20.421Z,14.20
2022-10-20T08:22:24.275Z,14.20
2022-10-20T08:24:27.094Z,14.30
2022-10-20T08:26:28.950Z,14.40
2022-10-20T08:28:30.766Z,14.40
2022-10-20T08:30:33.026Z,14.50
2022-10-20T08:32:35.243Z,14.50
2022-10-20T08:34:37.328Z,14.60
2022-10-20T08:36:40.412Z,14.70
2022-10-20T08:38:42.494Z,14.80
2022-10-20T08:40:44.576Z,14.80
2022-10-20T08:42:47.023Z,14.80
2022-10-20T08:44:49.430Z,14.90
2022-10-20T08:46:52.337Z,15.00
2022-10-20T08:48:55.379Z,15.00
2022-10-20T08:50:58.040Z,15.10
2022-10-20T08:53:01.029Z,15.10
2022-10-20T08:55:04.535Z,15.10
2022-10-20T08:57:20.887Z,15.20
2022-10-20T08:59:39.242Z,15.30
2022-10-20T09:01:42.333Z,15.40
2022-10-20T09:03:44.243Z,15.40
2022-10-20T09:06:01.941Z,15.60
2022-10-20T09:08:05.142Z,15.60
2022-10-20T09:10:07.076Z,15.70
2022-10-20T09:12:13.442Z,15.70
2022-10-20T09:14:16.830Z,15.80
2022-10-20T09:16:33.322Z,15.80
2022-10-20T09:18:41.675Z,15.80
2022-10-20T09:20:53.859Z,16.00
2022-10-20T09:22:55.812Z,16.00
2022-10-20T09:24:58.551Z,16.00
2022-10-20T09:27:17.663Z,16.10
2022-10-20T09:29:22.811Z,16.20
2022-10-20T09:31:32.775Z,16.20
2022-10-20T09:33:35.191Z,16.20
2022-10-20T09:35:39.775Z,16.20
2022-10-20T09:37:42.651Z,16.30
2022-10-20T09:39:51.382Z,16.40
2022-10-20T09:44:08.360Z,16.40
2022-10-20T09:46:11.324Z,16.40
2022-10-20T09:48:31.541Z,16.40
2022-10-20T09:50:39.392Z,16.40
2022-10-20T09:52:47.583Z,16.40
2022-10-20T09:54:55.891Z,16.40
2022-10-20T09:57:07.149Z,16.50
2022-10-20T09:59:24.075Z,16.40
2022-10-20T10:01:26.120Z,16.20
2022-10-20T10:03:28.083Z,16.30
2022-10-20T10:05:32.760Z,16.50
2022-10-20T10:07:36.625Z,16.50
2022-10-20T10:09:38.495Z,16.50
2022-10-20T10:11:40.494Z,16.50
2022-10-20T10:13:43.850Z,16.50
2022-10-20T10:15:45.669Z,16.50
2022-10-20T10:17:49.554Z,16.50
2022-10-20T10:19:54.058Z,16.60
2022-10-20T10:22:02.489Z,16.60
2022-10-20T10:24:04.649Z,16.60
2022-10-20T10:26:27.628Z,16.70
2022-10-20T10:28:31.321Z,16.80
2022-10-20T10:30:34.186Z,16.80
2022-10-20T10:32:43.300Z,16.80
2022-10-20T10:35:03.678Z,16.80
2022-10-20T10:37:05.792Z,16.70
2022-10-20T10:39:12.094Z,16.90
2022-10-20T10:41:34.831Z,16.90
2022-10-20T10:43:44.916Z,17.00
2022-10-20T10:45:56.678Z,16.90
2022-10-20T10:48:28.808Z,16.90
2022-10-20T10:50:33.681Z,16.90
2022-10-20T10:52:51.583Z,16.90
2022-10-20T10:55:02.518Z,16.90
2022-10-20T10:57:23.805Z,16.80
2022-10-20T10:59:40.984Z,16.80
2022-10-20T11:02:01.594Z,16.80
2022-10-20T11:04:03.253Z,16.90
2022-10-20T11:06:22.217Z,16.80
2022-10-20T11:08:36.354Z,16.80
2022-10-20T11:10:59.906Z,16.80
2022-10-20T11:13:23.054Z,16.80
2022-10-20T11:15:44.224Z,16.80
2022-10-20T11:18:01.331Z,16.80
2022-10-20T11:20:08.622Z,16.80
2022-10-20T11:22:25.873Z,16.90
2022-10-20T11:24:45.678Z,16.90
2022-10-20T11:26:50.339Z,17.00
2022-10-20T11:28:53.550Z,17.00
2022-10-20T11:30:57.147Z,17.20
2022-10-20T11:32:58.845Z,17.20
2022-10-20T11:35:03.537Z,17.30
2022-10-20T11:37:17.958Z,17.30
2022-10-20T11:39:34.147Z,17.30
2022-10-20T11:41:48.170Z,17.50
2022-10-20T11:43:49.737Z,17.60
2022-10-20T11:45:54.648Z,17.70
2022-10-20T11:48:08.665Z,17.70
2022-10-20T11:50:11.417Z,17.70
2022-10-20T11:52:39.754Z,17.60
2022-10-20T11:54:53.280Z,17.50
2022-10-20T11:56:58.037Z,17.40
2022-10-20T11:59:04.285Z,17.50
2022-10-20T12:01:15.326Z,17.60
2022-10-20T12:03:16.915Z,17.60
2022-10-20T12:05:30.408Z,17.70
2022-10-20T12:07:48.064Z,17.70
2022-10-20T12:09:58.890Z,17.60
2022-10-20T12:12:00.580Z,17.50
2022-10-20T12:14:22.766Z,17.30
2022-10-20T12:16:43.313Z,17.30
2022-10-20T12:19:05.146Z,17.20
2022-10-20T12:21:08.055Z,17.10
2022-10-20T12:23:29.667Z,17.10
2022-10-20T12:25:31.326Z,17.10
2022-10-20T12:27:33.067Z,17.10
2022-10-20T12:29:34.737Z,17.00
2022-10-20T12:31:56.972Z,17.10
2022-10-20T12:33:59.988Z,17.10
2022-10-20T12:36:14.027Z,17.10
2022-10-20T12:38:25.029Z,17.10
2022-10-20T12:40:47.062Z,17.10
2022-10-20T12:42:52.190Z,17.10
2022-10-20T12:44:54.084Z,17.10
2022-10-20T12:47:05.815Z,17.10
2022-10-20T12:49:12.003Z,17.10
2022-10-20T12:51:22.879Z,17.10
2022-10-20T12:53:26.896Z,17.10
2022-10-20T12:55:31.708Z,17.10
2022-10-20T12:57:48.789Z,17.10
2022-10-20T12:59:50.654Z,17.10
2022-10-20T13:02:10.847Z,17.10
2022-10-20T13:04:39.832Z,17.10
2022-10-20T13:06:43.972Z,17.10
2022-10-20T13:09:07.268Z,17.00
2022-10-20T13:11:28.671Z,16.90
2022-10-20T13:13:36.463Z,16.80
2022-10-20T13:15:43.306Z,16.80
2022-10-20T13:17:51.219Z,16.80
2022-10-20T13:20:01.270Z,16.80
2022-10-20T13:22:25.227Z,16.80
2022-10-20T13:24:33.337Z,16.80
2022-10-20T13:26:45.392Z,16.90
2022-10-20T13:28:48.596Z,16.90
2022-10-20T13:30:56.323Z,17.00
2022-10-20T13:33:17.892Z,17.00
2022-10-20T13:35:24.320Z,17.00
2022-10-20T13:37:36.176Z,17.00
2022-10-20T13:39:38.003Z,17.10
2022-10-20T13:41:51.947Z,17.10
2022-10-20T13:44:04.201Z,17.10
2022-10-20T13:46:20.694Z,17.10
2022-10-20T13:48:22.481Z,17.10
2022-10-20T13:50:28.076Z,17.10
2022-10-20T13:52:31.961Z,17.20
2022-10-20T13:54:35.970Z,17.20
2022-10-20T13:56:45.969Z,17.20
2022-10-20T13:59:04.513Z,17.30
2022-10-20T14:01:16.966Z,17.30
2022-10-20T14:03:18.979Z,17.30
2022-10-20T14:05:29.431Z,17.30
2022-10-20T14:07:41.982Z,17.20
2022-10-20T14:09:56.651Z,17.20
2022-10-20T14:12:04.980Z,17.20
2022-10-20T14:14:07.083Z,17.20
2022-10-20T14:16:19.781Z,17.20
2022-10-20T14:18:23.828Z,17.10
2022-10-20T14:20:26.216Z,17.10
2022-10-20T14:22:28.025Z,17.10
2022-10-20T14:24:31.641Z,17.10
2022-10-20T14:26:33.895Z,17.00
2022-10-20T14:28:36.365Z,16.90
2022-10-20T14:30:45.498Z,16.90
2022-10-20T14:32:48.839Z,16.90
2022-10-20T14:34:55.478Z,16.80
2022-10-20T14:36:57.616Z,16.70
2022-10-20T14:39:06.679Z,16.70
2022-10-20T14:41:11.213Z,16.60
2022-10-20T14:43:15.706Z,16.60
2022-10-20T14:45:18.946Z,16.60
2022-10-20T14:47:21.249Z,16.60
2022-10-20T14:49:23.545Z,16.60
2022-10-20T14:51:44.981Z,16.60
2022-10-20T14:53:47.187Z,16.60
2022-10-20T14:55:59.204Z,16.60
2022-10-20T14:58:01.563Z,16.60
2022-10-20T15:00:21.899Z,16.50
2022-10-20T15:02:26.100Z,16.50
2022-10-20T15:04:30.986Z,16.50
2022-10-20T15:06:35.276Z,16.40
2022-10-20T15:08:36.953Z,16.40
2022-10-20T15:10:38.884Z,16.40
2022-10-20T15:12:42.736Z,16.40
2022-10-20T15:14:46.538Z,16.30
2022-10-20T15:16:48.716Z,16.30
2022-10-20T15:19:10.262Z,16.30
2022-10-20T15:21:12.050Z,16.30
2022-10-20T15:23:19.521Z,16.30
2022-10-20T15:25:21.317Z,16.40
2022-10-20T15:27:23.004Z,16.40
2022-10-20T15:29:25.168Z,16.30
2022-10-20T15:31:28.171Z,16.30
2022-10-20T15:33:32.877Z,16.30
2022-10-20T15:35:34.543Z,16.40
2022-10-20T15:37:36.218Z,16.30
2022-10-20T15:39:39.030Z,16.20
2022-10-20T15:41:40.806Z,16.10
2022-10-20T15:43:42.621Z,16.10
2022-10-20T15:45:46.122Z,16.10
2022-10-20T15:47:48.017Z,16.00
2022-10-20T15:49:49.729Z,16.00
2022-10-20T15:51:51.513Z,15.90
2022-10-20T15:53:54.545Z,15.90
2022-10-20T15:55:56.409Z,15.90
2022-10-20T15:57:59.527Z,15.90
2022-10-20T16:00:01.244Z,15.80
2022-10-20T16:02:02.901Z,15.80
2022-10-20T16:04:16.698Z,15.80
2022-10-20T16:06:18.610Z,15.80
2022-10-20T16:08:20.231Z,15.80
2022-10-20T16:10:24.481Z,15.70
2022-10-20T16:12:26.474Z,15.70
2022-10-20T16:14:29.228Z,15.80
2022-10-20T16:16:30.931Z,15.70
2022-10-20T16:18:34.760Z,15.70
2022-10-20T16:20:36.488Z,15.70
2022-10-20T16:22:38.648Z,15.60
2022-10-20T16:24:40.699Z,15.60
2022-10-20T16:26:42.479Z,15.60
2022-10-20T16:28:44.122Z,15.60
2022-10-20T16:30:45.775Z,15.60
2022-10-20T16:32:47.430Z,15.60
2022-10-20T16:34:49.258Z,15.60
2022-10-20T16:36:53.613Z,15.50
2022-10-20T16:39:00.395Z,15.50
2022-10-20T16:41:10.725Z,15.50
2022-10-20T16:43:16.569Z,15.50
2022-10-20T16:45:18.440Z,15.40
2022-10-20T16:47:20.179Z,15.40
2022-10-20T16:49:21.985Z,15.40
2022-10-20T16:51:23.740Z,15.40
2022-10-20T16:53:25.475Z,15.50
2022-10-20T16:55:27.188Z,15.50
2022-10-20T16:57:29.845Z,15.60
2022-10-20T16:59:31.571Z,15.50
2022-10-20T17:01:35.437Z,15.50
2022-10-20T17:03:37.588Z,15.40
2022-10-20T17:05:39.275Z,15.40
2022-10-20T17:07:41.044Z,15.40
2022-10-20T17:09:42.793Z,15.40
2022-10-20T17:11:44.468Z,15.40
2022-10-20T17:13:46.593Z,15.40
2022-10-20T17:15:50.019Z,15.40
2022-10-20T17:17:51.733Z,15.40
2022-10-20T17:19:53.355Z,15.40
2022-10-20T17:21:56.246Z,15.40
2022-10-20T17:23:58.516Z,15.40
2022-10-20T17:26:02.227Z,15.30
2022-10-20T17:28:04.103Z,15.30
2022-10-20T17:30:06.073Z,15.30
2022-10-20T17:32:07.687Z,15.30
2022-10-20T17:34:09.327Z,15.30
2022-10-20T17:36:14.016Z,15.30
2022-10-20T17:38:16.640Z,15.30
2022-10-20T17:40:22.924Z,15.30
2022-10-20T17:42:24.837Z,15.30
2022-10-20T17:44:26.674Z,15.30
2022-10-20T17:46:28.540Z,15.30
2022-10-20T17:48:30.262Z,15.30
2022-10-20T17:50:31.933Z,15.30
2022-10-20T17:52:33.548Z,15.30
2022-10-20T17:54:35.212Z,15.20
2022-10-20T17:56:37.525Z,15.20
2022-10-20T17:58:39.577Z,15.20
2022-10-20T18:00:55.296Z,15.20
2022-10-20T18:02:58.035Z,15.20
2022-10-20T18:04:59.750Z,15.20
2022-10-20T18:07:01.421Z,15.20
2022-10-20T18:09:05.414Z,15.20
2022-10-20T18:11:08.165Z,15.10
2022-10-20T18:13:09.956Z,15.10
2022-10-20T18:15:11.539Z,15.20
2022-10-20T18:17:13.428Z,15.10
2022-10-20T18:19:16.802Z,15.10
2022-10-20T18:21:19.696Z,15.10
2022-10-20T18:23:24.381Z,15.10
2022-10-20T18:25:26.649Z,15.10
2022-10-20T18:27:28.602Z,15.10
2022-10-20T18:29:30.360Z,15.20
2022-10-20T18:31:35.037Z,15.20
2022-10-20T18:33:36.922Z,15.20
2022-10-20T18:35:41.389Z,15.20
2022-10-20T18:37:55.089Z,15.20
2022-10-20T18:39:57.883Z,15.20
2022-10-20T18:41:59.578Z,15.20
2022-10-20T18:44:02.353Z,15.20
2022-10-20T18:46:04.944Z,15.10
2022-10-20T18:48:09.759Z,15.10
2022-10-20T18:50:17.176Z,15.10
2022-10-20T18:52:18.922Z,15.00
2022-10-20T18:54:21.531Z,14.90
2022-10-20T18:56:24.600Z,14.90
2022-10-20T18:58:34.157Z,14.90
2022-10-20T19:00:35.958Z,15.00
2022-10-20T19:02:37.901Z,15.00
2022-10-20T19:04:39.834Z,15.00
2022-10-20T19:06:42.894Z,15.00
2022-10-20T19:08:48.072Z,15.00
2022-10-20T19:10:49.954Z,15.00
2022-10-20T19:12:51.730Z,15.00
2022-10-20T19:14:53.470Z,15.10
2022-10-20T19:16:55.310Z,15.00
2022-10-20T19:18:58.634Z,15.10
2022-10-20T19:21:01.950Z,15.00
2022-10-20T19:23:04.592Z,15.00
2022-10-20T19:25:08.027Z,15.00
2022-10-20T19:27:26.892Z,15.00
2022-10-20T19:29:29.538Z,15.00
2022-10-20T19:31:34.062Z,14.90
2022-10-20T19:33:35.882Z,14.90
2022-10-20T19:35:43.037Z,14.90
2022-10-20T19:37:45.146Z,14.90
2022-10-20T19:39:49.871Z,14.90
2022-10-20T19:41:55.220Z,14.90
2022-10-20T19:43:57.349Z,14.90
2022-10-20T19:45:59.457Z,14.90
2022-10-20T19:48:01.200Z,14.90
2022-10-20T19:50:03.122Z,14.90
2022-10-20T19:52:13.146Z,14.90
2022-10-20T19:54:14.935Z,14.90
2022-10-20T19:56:17.094Z,14.90
2022-10-20T19:58:20.680Z,14.90
2022-10-20T20:00:24.990Z,14.90
2022-10-20T20:02:26.726Z,14.90
2022-10-20T20:04:28.432Z,14.90
2022-10-20T20:06:30.617Z,14.90
2022-10-20T20:08:36.203Z,14.90
2022-10-20T20:10:41.761Z,14.90
2022-10-20T20:12:43.406Z,14.90
2022-10-20T20:14:52.872Z,14.90
2022-10-20T20:16:54.788Z,14.90
2022-10-20T20:18:57.930Z,14.90
2022-10-20T20:21:01.580Z,14.90
2022-10-20T20:23:03.251Z,14.90
2022-10-20T20:25:10.999Z,14.90
2022-10-20T20:27:15.450Z,14.90
2022-10-20T20:29:20.540Z,14.90
2022-10-20T20:31:28.633Z,14.80
2022-10-20T20:33:30.346Z,14.80
2022-10-20T20:35:32.103Z,14.80
2022-10-20T20:37:34.054Z,14.70
2022-10-20T20:39:39.252Z,14.70
2022-10-20T20:41:41.068Z,14.80
2022-10-20T20:43:46.368Z,14.80
2022-10-20T20:45:50.554Z,14.80
2022-10-20T20:47:54.014Z,14.80
2022-10-20T20:49:56.402Z,14.70
2022-10-20T20:51:58.036Z,14.70
2022-10-20T20:54:00.180Z,14.80
2022-10-20T20:56:09.096Z,14.80
2022-10-20T20:58:21.607Z,14.80
2022-10-20T21:00:26.030Z,14.70
2022-10-20T21:02:31.473Z,14.70
2022-10-20T21:04:33.555Z,14.70
2022-10-20T21:07:00.795Z,14.60
2022-10-20T21:09:01.477Z,14.60
2022-10-20T21:11:13.779Z,14.70
2022-10-20T21:14:07.145Z,14.70
2022-10-20T21:16:15.534Z,14.70
2022-10-20T21:18:43.035Z,14.60
2022-10-20T21:20:52.738Z,14.60
2022-10-20T21:22:55.186Z,14.50
2022-10-20T21:24:58.047Z,14.40
2022-10-20T21:27:03.767Z,14.40
2022-10-20T21:29:11.327Z,14.40
2022-10-20T21:31:21.829Z,14.40
2022-10-20T21:33:23.547Z,14.40
2022-10-20T21:35:28.522Z,14.40
2022-10-20T21:37:30.212Z,14.40
2022-10-20T21:39:34.089Z,14.40
2022-10-20T21:41:50.025Z,14.30
2022-10-20T21:43:57.431Z,14.20
2022-10-20T21:46:18.905Z,14.20
2022-10-20T21:48:20.644Z,14.20
2022-10-20T21:50:23.982Z,14.10
2022-10-20T21:52:25.733Z,14.10
2022-10-20T21:54:28.222Z,14.20
2022-10-20T21:56:29.950Z,14.20
2022-10-20T21:58:31.656Z,14.20
2022-10-20T22:00:33.227Z,14.20
2022-10-20T22:02:35.181Z,14.10
2022-10-20T22:04:36.818Z,14.10
2022-10-20T22:06:39.138Z,14.10
2022-10-20T22:08:42.526Z,14.10
2022-10-20T22:10:44.169Z,14.20
2022-10-20T22:12:46.099Z,14.20
2022-10-20T22:14:47.925Z,14.30
2022-10-20T22:16:49.696Z,14.30
2022-10-20T22:18:58.456Z,14.20
2022-10-20T22:21:11.163Z,14.10
2022-10-20T22:23:15.151Z,14.10
2022-10-20T22:25:16.998Z,14.10
2022-10-20T22:27:31.333Z,14.20
2022-10-20T22:29:40.270Z,14.10
2022-10-20T22:31:41.893Z,14.10
2022-10-20T22:33:43.642Z,14.20
2022-10-20T22:35:45.764Z,14.30
2022-10-20T22:37:47.470Z,14.20
2022-10-20T22:39:49.234Z,14.20
2022-10-20T22:41:50.904Z,14.10
2022-10-20T22:43:52.614Z,14.20
2022-10-20T22:45:54.166Z,14.10
2022-10-20T22:47:55.740Z,14.00
2022-10-20T22:49:57.305Z,13.80
2022-10-20T22:51:58.949Z,13.90
2022-10-20T22:54:01.352Z,13.90
2022-10-20T22:56:06.010Z,13.90
2022-10-20T22:58:07.589Z,13.90
2022-10-20T23:00:09.477Z,13.90
2022-10-20T23:02:11.061Z,13.90
2022-10-20T23:04:12.937Z,13.80
2022-10-20T23:06:15.743Z,13.80
2022-10-20T23:08:17.463Z,13.80
2022-10-20T23:10:19.003Z,13.80
2022-10-20T23:12:20.577Z,13.70
2022-10-20T23:14:22.148Z,13.60
2022-10-20T23:18:31.859Z,13.60
2022-10-20T23:20:33.405Z,13.60
2022-10-20T23:22:34.991Z,13.60
2022-10-20T23:24:36.558Z,13.50
2022-10-20T23:26:38.268Z,13.50
2022-10-20T23:28:40.128Z,13.50
2022-10-20T23:30:41.729Z,13.60
2022-10-20T23:32:43.310Z,13.60
2022-10-20T23:34:44.884Z,13.50
2022-10-20T23:36:46.474Z,13.50
2022-10-20T23:38:48.097Z,13.40
2022-10-20T23:40:49.823Z,13.40
2022-10-20T23:42:51.453Z,13.40
2022-10-20T23:44:53.004Z,13.50
2022-10-20T23:46:54.639Z,13.50
2022-10-20T23:48:56.209Z,13.50
2022-10-20T23:50:57.891Z,13.50
2022-10-20T23:52:59.446Z,13.40
2022-10-20T23:55:01.072Z,13.40
2022-10-20T23:57:02.769Z,13.40
2022-10-20T23:59:04.345Z,13.50
